クウェート の空港の天気 - METARとTAF

クウェート国際空港 ( OKBK / KWI ) - クウェート クウェート
飛行場実況気象(Metar)
観測時間08/04 23:00 AST (08/04 20:00 UTC)
風向・風速北北西 2m/s
視程10km以上
天気現象
なし
気温38℃
湿度14%
気圧994hPa
METAROKBK 042000Z 33004KT CAVOK 38/06 Q0994 NOSIG
過去の天気等 Google飛行場航空写真 Wunderground天気予報

過去48時間のMETAR

飛行場予報(TAF)
発表時間: 8/04 19:45 AST (8/04 16:45 UTC)
予報対象時間: 4日21時 AST ~ 6日3時 AST
風向・風速北西 4m/s 瞬間風速 9m/s
視程6000m
なし
TAF OKBK 041645Z 0418/0524 32008G18KT 6000 NSC